createdAt,value
2018-12-14T00:01:07.189Z,15.77
2018-12-14T00:06:03.922Z,13.40
2018-12-14T00:11:00.822Z,16.00
2018-12-14T00:15:57.656Z,15.30
2018-12-14T00:20:54.286Z,15.30
2018-12-14T00:25:50.934Z,14.20
2018-12-14T00:30:47.587Z,15.10
2018-12-14T00:35:43.944Z,15.47
2018-12-14T00:40:40.001Z,16.17
2018-12-14T00:45:36.024Z,14.73
2018-12-14T00:50:32.050Z,15.50
2018-12-14T00:55:28.085Z,15.50
2018-12-14T01:00:24.118Z,16.80
2018-12-14T01:05:20.156Z,15.10
2018-12-14T01:10:16.193Z,16.80
2018-12-14T01:15:13.170Z,16.70
2018-12-14T01:20:09.951Z,17.40
2018-12-14T01:25:06.431Z,17.37
2018-12-14T01:30:04.536Z,16.27
2018-12-14T01:35:00.565Z,16.63
2018-12-14T01:39:56.630Z,16.30
2018-12-14T01:44:52.709Z,16.00
2018-12-14T01:49:48.733Z,16.97
2018-12-14T01:54:44.782Z,16.30
2018-12-14T01:59:40.801Z,15.37
2018-12-14T02:04:36.822Z,15.60
2018-12-14T02:09:32.868Z,16.00
2018-12-14T02:14:28.906Z,17.13
2018-12-14T02:19:25.941Z,15.00
2018-12-14T02:24:22.142Z,16.43
2018-12-14T02:29:18.515Z,15.70
2018-12-14T02:34:15.019Z,16.10
2018-12-14T02:39:11.576Z,14.57
2018-12-14T02:44:07.936Z,15.03
2018-12-14T02:49:04.615Z,13.67
2018-12-14T02:54:00.950Z,13.47
2018-12-14T02:58:57.575Z,15.40
2018-12-14T03:03:53.631Z,15.07
2018-12-14T03:08:49.658Z,14.50
2018-12-14T03:13:45.686Z,15.83
2018-12-14T03:18:41.702Z,15.77
2018-12-14T03:23:37.726Z,14.80
2018-12-14T03:28:33.763Z,15.60
2018-12-14T03:33:29.816Z,15.43
2018-12-14T03:38:25.963Z,15.03
2018-12-14T03:43:22.013Z,16.67
2018-12-14T03:48:18.053Z,15.30
2018-12-14T03:53:14.089Z,17.03
2018-12-14T03:58:10.355Z,18.37
2018-12-14T04:03:06.610Z,15.73
2018-12-14T04:08:02.782Z,18.10
2018-12-14T04:12:58.841Z,17.33
2018-12-14T04:17:54.898Z,17.07
2018-12-14T04:22:50.929Z,15.83
2018-12-14T04:27:46.976Z,16.60
2018-12-14T04:32:43.041Z,17.93
2018-12-14T04:37:39.099Z,16.43
2018-12-14T04:42:35.586Z,15.93
2018-12-14T04:47:31.762Z,16.60
2018-12-14T04:52:27.923Z,15.40
2018-12-14T04:57:24.060Z,17.97
2018-12-14T05:02:21.757Z,16.07
2018-12-14T05:07:17.792Z,15.10
2018-12-14T05:12:14.046Z,16.97
2018-12-14T05:17:10.141Z,16.60
2018-12-14T05:22:06.176Z,16.30
2018-12-14T05:27:02.351Z,16.10
2018-12-14T05:31:59.656Z,16.30
2018-12-14T05:36:55.766Z,16.87
2018-12-14T05:41:51.833Z,16.23
2018-12-14T05:46:47.869Z,15.47
2018-12-14T05:51:44.013Z,14.43
2018-12-14T05:56:40.059Z,17.30
2018-12-14T06:01:37.612Z,15.33
2018-12-14T06:06:33.837Z,19.67
2018-12-14T06:11:29.873Z,16.20
2018-12-14T06:16:25.905Z,15.70
2018-12-14T06:21:21.940Z,18.23
2018-12-14T06:26:17.974Z,17.53
2018-12-14T06:31:13.993Z,15.27
2018-12-14T06:36:10.133Z,19.17
2018-12-14T06:41:06.228Z,15.87
2018-12-14T06:46:02.293Z,16.50
2018-12-14T06:50:58.782Z,18.93
2018-12-14T06:55:54.834Z,17.23
2018-12-14T07:00:50.892Z,17.50
2018-12-14T07:05:46.967Z,18.03
2018-12-14T07:10:43.024Z,19.13
2018-12-14T07:15:39.117Z,19.13
2018-12-14T07:20:35.370Z,20.00
2018-12-14T07:25:31.456Z,21.47
2018-12-14T07:30:27.513Z,22.67
2018-12-14T07:35:23.618Z,20.90
2018-12-14T07:40:19.842Z,20.43
2018-12-14T07:45:16.034Z,20.67
2018-12-14T07:50:12.076Z,19.00
2018-12-14T07:55:08.309Z,17.07
2018-12-14T08:00:05.723Z,17.63
2018-12-14T08:05:02.334Z,16.40
2018-12-14T08:09:58.377Z,18.00
2018-12-14T08:14:54.547Z,20.27
2018-12-14T08:19:50.595Z,17.93
2018-12-14T08:24:46.662Z,17.87
2018-12-14T08:29:42.721Z,17.00
2018-12-14T08:34:38.880Z,16.40
2018-12-14T08:39:35.150Z,15.60
2018-12-14T08:44:31.236Z,16.33
2018-12-14T08:49:28.304Z,15.77
2018-12-14T08:54:24.490Z,16.50
2018-12-14T08:59:20.570Z,16.97
2018-12-14T09:04:16.679Z,17.17
2018-12-14T09:09:12.734Z,18.47
2018-12-14T09:14:08.890Z,15.40
2018-12-14T09:19:04.962Z,15.10
2018-12-14T09:24:01.021Z,14.67
2018-12-14T09:28:57.300Z,16.03
2018-12-14T09:33:53.381Z,14.20
2018-12-14T09:38:49.461Z,14.37
2018-12-14T09:43:45.514Z,15.27
2018-12-14T09:48:41.583Z,14.67
2018-12-14T09:53:37.763Z,15.17
2018-12-14T09:58:33.827Z,15.40
2018-12-14T10:03:30.534Z,16.50
2018-12-14T10:08:26.605Z,14.73
2018-12-14T10:13:22.991Z,17.27
2018-12-14T10:18:19.161Z,15.50
2018-12-14T10:23:15.260Z,16.70
2018-12-14T10:28:11.353Z,14.83
2018-12-14T10:33:07.417Z,15.97
2018-12-14T10:38:03.501Z,15.10
2018-12-14T10:42:59.659Z,14.90
2018-12-14T10:47:59.633Z,14.63
2018-12-14T10:52:58.381Z,14.40
2018-12-14T10:57:55.564Z,14.47
2018-12-14T11:02:51.701Z,15.37
2018-12-14T11:07:47.859Z,15.13
2018-12-14T11:12:44.962Z,13.00
2018-12-14T11:17:43.652Z,14.10
2018-12-14T11:22:43.452Z,14.07
2018-12-14T11:27:39.707Z,12.40
2018-12-14T11:32:36.520Z,12.77
2018-12-14T11:37:32.677Z,11.83
2018-12-14T11:42:28.741Z,11.40
2018-12-14T11:47:24.871Z,11.73
2018-12-14T11:52:20.958Z,12.20
2018-12-14T11:57:17.065Z,13.20
2018-12-14T12:02:16.059Z,12.57
2018-12-14T12:07:12.230Z,13.57
2018-12-14T12:12:08.382Z,11.93
2018-12-14T12:17:04.684Z,12.20
2018-12-14T12:22:00.763Z,13.33
2018-12-14T12:26:56.889Z,13.30
2018-12-14T12:31:55.133Z,11.97
2018-12-14T12:36:51.274Z,11.80
2018-12-14T12:41:47.510Z,11.37
2018-12-14T12:46:43.579Z,12.80
2018-12-14T12:51:39.782Z,14.70
2018-12-14T12:56:35.944Z,13.00
2018-12-14T13:01:34.005Z,13.40
2018-12-14T13:06:31.674Z,12.80
2018-12-14T13:11:29.491Z,11.63
2018-12-14T13:16:26.703Z,11.63
2018-12-14T13:21:23.679Z,11.53
2018-12-14T13:26:20.407Z,12.10
2018-12-14T13:31:16.496Z,12.80
2018-12-14T13:36:12.563Z,12.30
2018-12-14T13:41:08.738Z,11.73
2018-12-14T13:46:04.822Z,12.57
2018-12-14T13:51:00.889Z,11.97
2018-12-14T13:55:57.032Z,11.60
2018-12-14T14:00:53.186Z,10.53
2018-12-14T14:05:49.360Z,11.20
2018-12-14T14:10:45.495Z,11.10
2018-12-14T14:15:41.652Z,10.63
2018-12-14T14:20:37.941Z,13.03
2018-12-14T14:25:34.339Z,11.97
2018-12-14T14:30:30.440Z,10.43
2018-12-14T14:35:26.517Z,11.77
2018-12-14T14:40:22.600Z,11.70
2018-12-14T14:45:18.679Z,12.10
2018-12-14T14:50:14.768Z,10.20
2018-12-14T14:55:10.848Z,10.20
2018-12-14T15:00:07.277Z,10.10
2018-12-14T15:05:06.461Z,9.83
2018-12-14T15:10:04.143Z,10.40
2018-12-14T15:15:06.445Z,11.17
2018-12-14T15:19:58.821Z,11.30
2018-12-14T15:24:57.422Z,12.30
2018-12-14T15:29:53.545Z,11.40
2018-12-14T15:34:49.624Z,12.70
2018-12-14T15:39:45.732Z,10.63
2018-12-14T15:44:41.887Z,12.00
2018-12-14T15:49:37.984Z,12.57
2018-12-14T15:54:34.125Z,11.00
2018-12-14T15:59:30.654Z,14.00
2018-12-14T16:04:26.822Z,11.37
2018-12-14T16:09:22.866Z,12.47
2018-12-14T16:14:20.005Z,14.07
2018-12-14T16:19:17.186Z,12.40
2018-12-14T16:24:13.322Z,12.13
2018-12-14T16:29:09.364Z,13.47
2018-12-14T16:34:05.565Z,13.80
2018-12-14T16:39:01.745Z,13.97
2018-12-14T16:43:57.806Z,13.40
2018-12-14T16:48:54.413Z,13.43
2018-12-14T16:53:56.451Z,15.17
2018-12-14T16:58:52.490Z,14.53
2018-12-14T17:03:48.645Z,14.70
2018-12-14T17:08:44.708Z,14.43
2018-12-14T17:13:40.781Z,15.00
2018-12-14T17:18:36.825Z,14.57
2018-12-14T17:23:34.288Z,13.60
2018-12-14T17:28:30.633Z,14.00
2018-12-14T17:33:27.565Z,15.87
2018-12-14T17:38:23.698Z,16.57
2018-12-14T17:43:20.826Z,15.97
2018-12-14T17:48:17.876Z,15.70
2018-12-14T17:53:14.909Z,16.90
2018-12-14T17:58:12.407Z,16.47
2018-12-14T18:03:10.837Z,17.10
2018-12-14T18:08:07.298Z,16.70
2018-12-14T18:13:03.436Z,17.23
2018-12-14T18:17:59.601Z,17.40
2018-12-14T18:22:56.839Z,16.60
2018-12-14T18:27:53.419Z,15.63
2018-12-14T18:32:52.032Z,17.97
2018-12-14T18:37:48.944Z,16.37
2018-12-14T18:42:45.458Z,16.30
2018-12-14T18:47:41.726Z,17.17
2018-12-14T18:52:38.076Z,18.13
2018-12-14T18:57:38.641Z,18.13
2018-12-14T19:02:35.654Z,16.70
2018-12-14T19:07:31.797Z,18.90
2018-12-14T19:12:28.128Z,17.27
2018-12-14T19:17:24.183Z,16.70
2018-12-14T19:22:20.348Z,18.70
2018-12-14T19:27:17.098Z,18.53
2018-12-14T19:32:14.112Z,17.80
2018-12-14T19:37:11.766Z,18.07
2018-12-14T19:42:09.593Z,16.33
2018-12-14T19:47:06.828Z,18.33
2018-12-14T19:52:04.304Z,18.80
2018-12-14T19:57:01.519Z,19.13
2018-12-14T20:02:04.189Z,20.07
2018-12-14T20:07:01.227Z,19.63
2018-12-14T20:11:57.416Z,18.60
2018-12-14T20:16:53.542Z,20.30
2018-12-14T20:21:49.681Z,18.60
2018-12-14T20:26:47.781Z,20.47
2018-12-14T20:31:47.110Z,18.70
2018-12-14T20:36:45.600Z,19.13
2018-12-14T20:41:41.942Z,17.70
2018-12-14T20:46:38.077Z,18.67
2018-12-14T20:51:34.224Z,17.77
2018-12-14T20:56:30.372Z,18.83
2018-12-14T21:01:26.504Z,17.70
2018-12-14T21:06:23.029Z,18.07
2018-12-14T21:11:22.199Z,17.60
2018-12-14T21:16:18.330Z,18.90
2018-12-14T21:21:14.430Z,16.90
2018-12-14T21:26:10.536Z,18.03
2018-12-14T21:31:07.678Z,18.20
2018-12-14T21:36:03.862Z,17.63
2018-12-14T21:40:59.948Z,17.53
2018-12-14T21:45:56.062Z,18.70
2018-12-14T21:50:52.185Z,19.30
2018-12-14T21:55:49.124Z,17.30
2018-12-14T22:00:45.298Z,17.70
2018-12-14T22:05:41.342Z,19.00
2018-12-14T22:10:37.421Z,19.20
2018-12-14T22:15:33.689Z,16.67
2018-12-14T22:20:29.732Z,20.20
2018-12-14T22:25:26.618Z,18.23
2018-12-14T22:30:22.730Z,18.63
2018-12-14T22:35:18.783Z,18.00
2018-12-14T22:40:14.921Z,18.83
2018-12-14T22:45:10.993Z,20.10
2018-12-14T22:50:07.175Z,19.13
2018-12-14T22:55:03.873Z,17.77
2018-12-14T22:59:59.906Z,18.00
2018-12-14T23:04:55.954Z,18.57
2018-12-14T23:09:52.099Z,18.60
2018-12-14T23:14:48.312Z,18.23
2018-12-14T23:19:44.449Z,18.03
2018-12-14T23:24:40.492Z,17.07
2018-12-14T23:29:36.529Z,19.13
2018-12-14T23:34:32.578Z,16.87
2018-12-14T23:39:28.597Z,16.80
2018-12-14T23:44:24.625Z,18.80
2018-12-14T23:49:20.659Z,18.33
2018-12-14T23:54:16.706Z,18.80
2018-12-14T23:59:12.740Z,18.30
